createdAt,value
2019-03-31T00:01:23.868Z,13.60
2019-03-31T00:03:52.481Z,15.90
2019-03-31T00:06:21.039Z,14.77
2019-03-31T00:08:49.640Z,14.23
2019-03-31T00:11:18.374Z,15.37
2019-03-31T00:13:47.147Z,14.40
2019-03-31T00:16:15.766Z,13.60
2019-03-31T00:18:44.293Z,13.73
2019-03-31T00:21:25.202Z,14.70
2019-03-31T00:23:54.194Z,14.27
2019-03-31T00:26:22.777Z,14.10
2019-03-31T00:28:51.442Z,14.47
2019-03-31T00:31:22.313Z,14.00
2019-03-31T00:33:50.454Z,13.43
2019-03-31T00:36:19.116Z,13.47
2019-03-31T00:38:47.714Z,14.27
2019-03-31T00:41:16.408Z,14.33
2019-03-31T00:43:45.119Z,14.27
2019-03-31T00:46:13.868Z,14.87
2019-03-31T00:48:42.469Z,14.63
2019-03-31T00:51:11.110Z,14.30
2019-03-31T00:53:39.666Z,13.57
2019-03-31T00:56:08.313Z,12.97
2019-03-31T00:58:36.891Z,14.27
2019-03-31T01:01:07.899Z,13.97
2019-03-31T01:03:36.995Z,13.30
2019-03-31T01:06:06.611Z,14.07
2019-03-31T01:08:35.888Z,13.97
2019-03-31T01:11:08.346Z,15.33
2019-03-31T01:13:37.302Z,15.30
2019-03-31T01:16:26.131Z,13.07
2019-03-31T01:18:54.713Z,14.20
2019-03-31T01:21:23.308Z,14.63
2019-03-31T01:23:52.006Z,14.97
2019-03-31T01:26:22.522Z,14.50
2019-03-31T01:28:51.868Z,14.13
2019-03-31T01:31:20.889Z,14.93
2019-03-31T01:33:50.078Z,13.03
2019-03-31T01:36:18.764Z,14.47
2019-03-31T01:38:47.487Z,13.43
2019-03-31T01:41:35.417Z,13.53
2019-03-31T01:44:04.537Z,13.53
2019-03-31T01:46:33.546Z,14.50
2019-03-31T01:49:02.368Z,13.63
2019-03-31T01:51:31.046Z,12.90
2019-03-31T01:53:59.638Z,13.33
2019-03-31T01:56:28.245Z,13.07
2019-03-31T01:58:57.139Z,13.17
2019-03-31T02:01:26.133Z,14.90
2019-03-31T02:03:55.204Z,12.97
2019-03-31T02:06:24.063Z,13.97
2019-03-31T02:08:52.636Z,13.27
2019-03-31T02:11:21.236Z,13.90
2019-03-31T02:13:49.991Z,14.10
2019-03-31T02:16:18.543Z,12.90
2019-03-31T02:18:47.227Z,13.03
2019-03-31T02:21:16.085Z,13.63
2019-03-31T02:23:44.662Z,13.93
2019-03-31T02:26:13.280Z,14.57
2019-03-31T02:28:41.840Z,13.70
2019-03-31T02:31:10.523Z,13.93
2019-03-31T02:33:39.164Z,13.87
2019-03-31T02:36:07.928Z,14.33
2019-03-31T02:38:36.644Z,13.83
2019-03-31T02:41:05.503Z,14.07
2019-03-31T02:43:34.241Z,14.93
2019-03-31T02:46:02.977Z,14.63
2019-03-31T02:48:31.621Z,14.27
2019-03-31T02:51:00.289Z,14.60
2019-03-31T02:53:29.008Z,14.07
2019-03-31T02:55:59.157Z,13.03
2019-03-31T02:58:28.599Z,14.37
2019-03-31T03:00:57.805Z,15.07
2019-03-31T03:03:28.038Z,13.83
2019-03-31T03:05:58.894Z,15.07
2019-03-31T03:08:28.878Z,15.03
2019-03-31T03:11:00.873Z,14.43
2019-03-31T03:13:32.039Z,13.47
2019-03-31T03:16:09.512Z,13.23
2019-03-31T03:18:38.218Z,13.17
2019-03-31T03:21:06.900Z,13.53
2019-03-31T03:23:35.468Z,13.50
2019-03-31T03:26:04.313Z,14.50
2019-03-31T03:28:32.873Z,14.47
2019-03-31T03:31:01.565Z,15.47
2019-03-31T03:33:30.344Z,13.73
2019-03-31T03:35:58.977Z,13.63
2019-03-31T03:38:27.609Z,15.10
2019-03-31T03:40:56.149Z,13.57
2019-03-31T03:43:24.806Z,13.80
2019-03-31T03:45:53.381Z,12.97
2019-03-31T03:48:21.978Z,13.17
2019-03-31T03:50:50.590Z,14.93
2019-03-31T03:53:19.247Z,13.93
2019-03-31T03:55:47.854Z,14.90
2019-03-31T03:58:16.549Z,13.60
2019-03-31T04:00:45.240Z,14.60
2019-03-31T04:03:33.232Z,13.70
2019-03-31T04:06:01.833Z,14.50
2019-03-31T04:08:30.451Z,14.50
2019-03-31T04:11:14.193Z,13.77
2019-03-31T04:13:42.869Z,15.30
2019-03-31T04:16:11.659Z,14.40
2019-03-31T04:18:59.589Z,15.83
2019-03-31T04:21:28.253Z,16.10
2019-03-31T04:23:57.373Z,14.60
2019-03-31T04:26:28.512Z,14.67
2019-03-31T04:28:57.105Z,15.27
2019-03-31T04:31:26.828Z,14.07
2019-03-31T04:33:55.413Z,15.70
2019-03-31T04:36:24.087Z,15.10
2019-03-31T04:38:52.779Z,14.57
2019-03-31T04:41:21.356Z,14.57
2019-03-31T04:43:50.104Z,15.17
2019-03-31T04:46:18.938Z,15.07
2019-03-31T04:48:47.783Z,14.93
2019-03-31T04:51:16.459Z,14.83
2019-03-31T04:53:45.203Z,14.67
2019-03-31T04:56:13.816Z,15.10
2019-03-31T04:58:43.294Z,13.50
2019-03-31T05:01:11.976Z,14.03
2019-03-31T05:03:40.682Z,14.03
2019-03-31T05:06:09.339Z,13.40
2019-03-31T05:08:37.900Z,13.47
2019-03-31T05:11:06.687Z,13.63
2019-03-31T05:13:35.311Z,13.67
2019-03-31T05:16:04.256Z,13.70
2019-03-31T05:18:32.815Z,12.90
2019-03-31T05:21:01.412Z,12.53
2019-03-31T05:23:30.105Z,13.03
2019-03-31T05:25:58.769Z,13.20
2019-03-31T05:28:27.380Z,14.17
2019-03-31T05:30:56.038Z,12.67
2019-03-31T05:33:24.649Z,13.20
2019-03-31T05:35:53.356Z,13.67
2019-03-31T05:38:22.036Z,14.33
2019-03-31T05:40:50.602Z,13.53
2019-03-31T05:43:19.197Z,13.20
2019-03-31T05:45:48.055Z,13.50
2019-03-31T05:48:16.749Z,13.73
2019-03-31T05:50:45.607Z,13.90
2019-03-31T05:53:14.254Z,14.33
2019-03-31T05:55:42.862Z,14.50
2019-03-31T05:58:11.455Z,15.37
2019-03-31T06:00:41.870Z,13.67
2019-03-31T06:03:10.602Z,14.37
2019-03-31T06:05:39.430Z,13.40
2019-03-31T06:08:08.020Z,13.70
2019-03-31T06:10:36.694Z,14.13
2019-03-31T06:13:05.410Z,13.57
2019-03-31T06:15:34.438Z,14.23
2019-03-31T06:18:03.080Z,13.07
2019-03-31T06:20:31.820Z,14.47
2019-03-31T06:23:00.429Z,12.63
2019-03-31T06:25:28.986Z,13.60
2019-03-31T06:27:57.723Z,13.83
2019-03-31T06:30:26.360Z,14.17
2019-03-31T06:32:55.577Z,14.73
2019-03-31T06:35:24.451Z,14.80
2019-03-31T06:37:53.023Z,14.83
2019-03-31T06:40:42.404Z,14.67
2019-03-31T06:43:11.220Z,14.07
2019-03-31T06:45:39.885Z,13.33
2019-03-31T06:48:08.523Z,13.90
2019-03-31T06:50:37.843Z,13.57
2019-03-31T06:53:06.679Z,14.67
2019-03-31T06:55:35.315Z,15.37
2019-03-31T06:58:04.001Z,13.30
2019-03-31T07:00:32.584Z,13.60
2019-03-31T07:03:01.267Z,13.87
2019-03-31T07:05:29.943Z,14.87
2019-03-31T07:07:58.556Z,13.90
2019-03-31T07:10:27.285Z,14.13
2019-03-31T07:12:59.546Z,13.90
2019-03-31T07:15:28.121Z,14.93
2019-03-31T07:17:56.767Z,15.27
2019-03-31T07:20:25.744Z,14.90
2019-03-31T07:22:54.419Z,15.63
2019-03-31T07:25:23.029Z,14.63
2019-03-31T07:27:51.770Z,14.43
2019-03-31T07:30:22.874Z,14.67
2019-03-31T07:32:53.068Z,15.40
2019-03-31T07:35:21.796Z,14.43
2019-03-31T07:37:50.412Z,15.23
2019-03-31T07:40:21.851Z,14.97
2019-03-31T07:42:51.315Z,14.90
2019-03-31T07:45:20.687Z,15.13
2019-03-31T07:47:49.377Z,14.67
2019-03-31T07:50:19.774Z,13.43
2019-03-31T07:52:48.525Z,14.33
2019-03-31T07:55:17.955Z,14.63
2019-03-31T07:57:46.632Z,13.20
2019-03-31T08:00:23.291Z,14.40
2019-03-31T08:02:52.182Z,14.20
2019-03-31T08:05:32.476Z,15.23
2019-03-31T08:07:51.304Z,14.57
2019-03-31T08:10:21.808Z,15.60
2019-03-31T08:12:50.513Z,14.57
2019-03-31T08:15:19.201Z,14.63
2019-03-31T08:17:47.844Z,14.83
2019-03-31T08:20:18.686Z,15.03
2019-03-31T08:22:49.030Z,15.40
2019-03-31T08:25:18.483Z,14.90
2019-03-31T08:27:47.200Z,15.27
2019-03-31T08:30:17.837Z,15.07
2019-03-31T08:32:46.424Z,13.87
2019-03-31T08:35:15.347Z,15.33
2019-03-31T08:37:44.038Z,15.20
2019-03-31T08:40:13.028Z,14.00
2019-03-31T08:42:41.818Z,14.93
2019-03-31T08:45:11.096Z,14.77
2019-03-31T08:47:40.061Z,14.77
2019-03-31T08:50:09.446Z,14.87
2019-03-31T08:52:38.104Z,13.60
2019-03-31T08:55:07.667Z,14.43
2019-03-31T08:57:36.355Z,15.00
2019-03-31T09:00:08.323Z,15.30
2019-03-31T09:02:36.976Z,14.37
2019-03-31T09:05:08.249Z,15.90
2019-03-31T09:07:37.241Z,14.30
2019-03-31T09:10:25.255Z,15.40
2019-03-31T09:12:53.967Z,15.37
2019-03-31T09:15:22.653Z,15.67
2019-03-31T09:17:53.997Z,14.97
2019-03-31T09:20:21.943Z,14.40
2019-03-31T09:22:50.834Z,14.83
2019-03-31T09:25:19.469Z,14.80
2019-03-31T09:27:48.208Z,14.83
2019-03-31T09:30:17.335Z,14.60
2019-03-31T09:32:47.718Z,14.90
2019-03-31T09:35:17.180Z,15.27
2019-03-31T09:37:45.886Z,14.93
2019-03-31T09:40:16.606Z,14.27
2019-03-31T09:42:45.408Z,14.40
2019-03-31T09:45:14.886Z,14.30
2019-03-31T09:47:46.492Z,14.83
2019-03-31T09:50:17.589Z,15.33
2019-03-31T09:52:46.602Z,14.87
2019-03-31T09:55:16.969Z,14.80
2019-03-31T09:57:45.631Z,15.47
2019-03-31T10:00:17.089Z,16.07
2019-03-31T10:02:45.828Z,14.83
2019-03-31T10:05:15.885Z,14.70
2019-03-31T10:07:46.447Z,14.27
2019-03-31T10:10:33.163Z,14.43
2019-03-31T10:13:02.260Z,16.00
2019-03-31T10:15:31.045Z,15.27
2019-03-31T10:17:59.690Z,15.47
2019-03-31T10:20:31.305Z,14.87
2019-03-31T10:22:59.101Z,13.77
2019-03-31T10:25:27.847Z,15.20
2019-03-31T10:27:56.404Z,13.73
2019-03-31T10:30:39.618Z,14.93
2019-03-31T10:33:08.442Z,14.63
2019-03-31T10:35:37.076Z,13.63
2019-03-31T10:38:06.219Z,14.80
2019-03-31T10:40:34.854Z,13.47
2019-03-31T10:43:03.528Z,12.20
2019-03-31T10:45:32.292Z,12.30
2019-03-31T10:48:00.995Z,12.97
2019-03-31T10:50:29.637Z,12.03
2019-03-31T10:52:58.220Z,9.43
2019-03-31T10:55:26.973Z,8.43
2019-03-31T10:57:55.610Z,7.90
2019-03-31T11:00:32.661Z,9.03
2019-03-31T11:03:01.615Z,11.20
2019-03-31T11:05:30.360Z,10.23
2019-03-31T11:07:59.061Z,9.63
2019-03-31T11:10:27.716Z,8.30
2019-03-31T11:12:56.410Z,9.07
2019-03-31T11:15:25.064Z,8.30
2019-03-31T11:17:53.684Z,9.23
2019-03-31T11:20:22.288Z,9.40
2019-03-31T11:22:55.408Z,8.93
2019-03-31T11:25:28.951Z,9.30
2019-03-31T11:27:54.463Z,9.87
2019-03-31T11:30:23.104Z,8.87
2019-03-31T11:32:51.742Z,8.47
2019-03-31T11:35:20.453Z,9.40
2019-03-31T11:37:50.226Z,9.10
2019-03-31T11:40:18.949Z,8.27
2019-03-31T11:42:47.549Z,7.73
2019-03-31T11:45:17.320Z,7.70
2019-03-31T11:47:45.999Z,8.50
2019-03-31T11:50:15.243Z,7.33
2019-03-31T11:52:45.733Z,8.03
2019-03-31T11:55:14.820Z,8.23
2019-03-31T11:57:43.381Z,8.17
2019-03-31T12:00:14.046Z,7.50
2019-03-31T12:02:42.762Z,6.97
2019-03-31T12:05:11.558Z,7.53
2019-03-31T12:07:46.639Z,7.43
2019-03-31T12:10:11.110Z,7.43
2019-03-31T12:12:39.768Z,6.30
2019-03-31T12:15:09.308Z,6.30
2019-03-31T12:17:37.988Z,6.77
2019-03-31T12:20:09.819Z,7.63
2019-03-31T12:22:38.609Z,6.97
2019-03-31T12:25:09.092Z,6.70
2019-03-31T12:27:38.104Z,6.90
2019-03-31T12:30:07.771Z,6.40
2019-03-31T12:32:38.639Z,7.60
2019-03-31T12:35:09.401Z,7.53
2019-03-31T12:37:42.534Z,8.77
2019-03-31T12:40:10.367Z,7.43
2019-03-31T12:42:39.238Z,9.37
2019-03-31T12:45:08.772Z,7.53
2019-03-31T12:47:37.422Z,7.53
2019-03-31T12:50:26.833Z,6.63
2019-03-31T12:52:55.509Z,7.00
2019-03-31T12:55:24.162Z,7.70
2019-03-31T12:57:52.882Z,7.30
2019-03-31T13:00:21.674Z,7.00
2019-03-31T13:02:50.327Z,7.43
2019-03-31T13:05:19.028Z,7.33
2019-03-31T13:08:07.114Z,6.67
2019-03-31T13:10:35.978Z,6.63
2019-03-31T13:13:04.837Z,7.87
2019-03-31T13:15:33.559Z,6.77
2019-03-31T13:18:03.294Z,7.10
2019-03-31T13:20:34.851Z,6.67
2019-03-31T13:23:03.573Z,6.13
2019-03-31T13:25:32.123Z,5.90
2019-03-31T13:28:00.747Z,6.17
2019-03-31T13:30:29.503Z,5.60
2019-03-31T13:32:58.091Z,5.70
2019-03-31T13:35:26.757Z,6.30
2019-03-31T13:37:55.398Z,5.27
2019-03-31T13:40:23.977Z,5.47
2019-03-31T13:42:52.798Z,5.13
2019-03-31T13:45:21.415Z,4.73
2019-03-31T13:47:50.037Z,7.33
2019-03-31T13:50:20.056Z,5.60
2019-03-31T13:52:48.668Z,5.27
2019-03-31T13:55:17.381Z,5.83
2019-03-31T13:57:47.538Z,4.90
2019-03-31T14:00:37.365Z,4.80
2019-03-31T14:03:06.525Z,4.67
2019-03-31T14:05:35.350Z,4.83
2019-03-31T14:08:04.841Z,4.83
2019-03-31T14:10:34.124Z,5.30
2019-03-31T14:13:03.088Z,4.83
2019-03-31T14:15:31.883Z,4.90
2019-03-31T14:18:00.594Z,5.13
2019-03-31T14:20:29.316Z,5.30
2019-03-31T14:22:57.998Z,4.90
2019-03-31T14:25:26.559Z,5.03
2019-03-31T14:27:55.240Z,5.70
2019-03-31T14:30:23.972Z,5.63
2019-03-31T14:32:52.663Z,4.50
2019-03-31T14:35:23.410Z,5.03
2019-03-31T14:37:51.940Z,5.57
2019-03-31T14:40:39.922Z,5.40
2019-03-31T14:43:08.603Z,5.90
2019-03-31T14:45:37.575Z,5.27
2019-03-31T14:48:06.511Z,5.10
2019-03-31T14:50:37.657Z,5.00
2019-03-31T14:53:07.795Z,4.70
2019-03-31T14:55:36.948Z,4.50
2019-03-31T14:58:07.916Z,4.37
2019-03-31T15:00:36.828Z,4.97
2019-03-31T15:03:05.873Z,5.67
2019-03-31T15:05:55.346Z,4.87
2019-03-31T15:08:23.929Z,4.70
2019-03-31T15:10:52.623Z,4.53
2019-03-31T15:13:21.199Z,5.13
2019-03-31T15:15:49.812Z,5.83
2019-03-31T15:18:18.369Z,4.83
2019-03-31T15:20:46.971Z,4.70
2019-03-31T15:23:15.571Z,4.80
2019-03-31T15:25:44.501Z,5.13
2019-03-31T15:28:13.186Z,5.30
2019-03-31T15:30:41.728Z,5.53
2019-03-31T15:33:10.420Z,5.20
2019-03-31T15:35:39.185Z,5.60
2019-03-31T15:38:07.840Z,4.90
2019-03-31T15:40:36.476Z,5.70
2019-03-31T15:43:06.031Z,4.90
2019-03-31T15:45:34.763Z,4.83
2019-03-31T15:48:03.398Z,4.63
2019-03-31T15:50:32.089Z,4.70
2019-03-31T15:53:00.717Z,5.03
2019-03-31T15:55:29.995Z,5.43
2019-03-31T15:58:11.315Z,4.33
2019-03-31T16:00:39.969Z,4.53
2019-03-31T16:03:08.619Z,4.27
2019-03-31T16:05:37.269Z,4.90
2019-03-31T16:08:05.840Z,4.60
2019-03-31T16:10:34.553Z,4.93
2019-03-31T16:13:03.160Z,4.53
2019-03-31T16:15:31.913Z,5.10
2019-03-31T16:18:00.535Z,5.60
2019-03-31T16:20:29.187Z,5.50
2019-03-31T16:22:57.795Z,5.03
2019-03-31T16:25:30.719Z,4.57
2019-03-31T16:27:59.568Z,5.33
2019-03-31T16:30:28.472Z,4.30
2019-03-31T16:32:57.159Z,4.60
2019-03-31T16:35:45.210Z,4.67
2019-03-31T16:38:13.779Z,4.37
2019-03-31T16:40:42.501Z,4.90
2019-03-31T16:43:11.112Z,4.90
2019-03-31T16:45:40.560Z,4.97
2019-03-31T16:48:09.183Z,5.07
2019-03-31T16:50:57.067Z,4.97
2019-03-31T16:53:25.767Z,4.60
2019-03-31T16:55:54.343Z,4.37
2019-03-31T16:58:22.944Z,4.87
2019-03-31T17:00:51.591Z,4.40
2019-03-31T17:03:20.315Z,4.77
2019-03-31T17:05:49.020Z,4.60
2019-03-31T17:08:17.634Z,4.77
2019-03-31T17:10:46.240Z,4.83
2019-03-31T17:13:14.882Z,5.43
2019-03-31T17:15:43.935Z,4.80
2019-03-31T17:18:12.563Z,5.13
2019-03-31T17:20:44.381Z,4.87
2019-03-31T17:23:32.433Z,5.50
2019-03-31T17:26:01.122Z,5.07
2019-03-31T17:28:29.692Z,4.83
2019-03-31T17:30:58.728Z,5.17
2019-03-31T17:33:30.213Z,5.30
2019-03-31T17:35:57.917Z,4.80
2019-03-31T17:38:26.532Z,5.73
2019-03-31T17:40:55.227Z,5.37
2019-03-31T17:43:23.889Z,5.43
2019-03-31T17:45:52.555Z,5.03
2019-03-31T17:48:21.111Z,5.40
2019-03-31T17:50:49.845Z,5.23
2019-03-31T17:53:18.475Z,5.43
2019-03-31T17:55:47.389Z,5.60
2019-03-31T17:58:16.199Z,5.70
2019-03-31T18:00:44.867Z,5.50
2019-03-31T18:03:15.580Z,4.77
2019-03-31T18:05:44.063Z,5.17
2019-03-31T18:08:12.704Z,5.40
2019-03-31T18:10:41.490Z,4.87
2019-03-31T18:13:10.055Z,4.80
2019-03-31T18:15:38.854Z,4.93
2019-03-31T18:18:07.467Z,4.80
2019-03-31T18:20:36.153Z,4.57
2019-03-31T18:23:04.916Z,5.00
2019-03-31T18:25:33.970Z,4.87
2019-03-31T18:28:02.563Z,4.87
2019-03-31T18:30:31.324Z,5.40
2019-03-31T18:32:59.941Z,5.50
2019-03-31T18:35:28.581Z,4.70
2019-03-31T18:37:57.243Z,6.07
2019-03-31T18:40:34.782Z,5.97
2019-03-31T18:42:56.532Z,6.57
2019-03-31T18:45:25.195Z,6.20
2019-03-31T18:47:53.862Z,6.37
2019-03-31T18:50:22.480Z,6.47
2019-03-31T18:52:51.059Z,6.23
2019-03-31T18:55:33.164Z,7.27
2019-03-31T18:58:03.489Z,7.10
2019-03-31T19:00:33.754Z,7.17
2019-03-31T19:03:20.387Z,7.30
2019-03-31T19:05:53.399Z,6.40
2019-03-31T19:08:26.425Z,6.97
2019-03-31T19:11:14.882Z,6.40
2019-03-31T19:13:55.261Z,6.90
2019-03-31T19:16:31.950Z,6.67
2019-03-31T19:19:17.693Z,7.00
2019-03-31T19:21:55.199Z,6.60
2019-03-31T19:24:28.593Z,7.20
2019-03-31T19:26:58.870Z,7.17
2019-03-31T19:29:32.101Z,7.03
2019-03-31T19:32:08.162Z,7.70
2019-03-31T19:34:40.954Z,8.00
2019-03-31T19:37:11.312Z,9.30
2019-03-31T19:39:47.537Z,7.93
2019-03-31T19:42:23.531Z,9.40
2019-03-31T19:44:53.780Z,9.00
2019-03-31T19:47:29.636Z,7.77
2019-03-31T19:50:12.035Z,7.97
2019-03-31T19:52:57.632Z,7.90
2019-03-31T19:55:27.956Z,7.93
2019-03-31T19:58:14.436Z,7.60
2019-03-31T20:01:00.037Z,7.27
2019-03-31T20:03:30.371Z,8.07
2019-03-31T20:06:09.800Z,8.00
2019-03-31T20:08:42.791Z,8.77
2019-03-31T20:11:18.797Z,8.23
2019-03-31T20:13:49.071Z,8.43
2019-03-31T20:16:35.275Z,8.70
2019-03-31T20:19:05.694Z,8.37
2019-03-31T20:21:38.868Z,8.53
2019-03-31T20:24:12.137Z,8.60
2019-03-31T20:26:58.614Z,9.13
2019-03-31T20:29:40.869Z,9.07
2019-03-31T20:32:13.802Z,9.23
2019-03-31T20:34:50.252Z,9.60
2019-03-31T20:37:29.479Z,9.03
2019-03-31T20:40:15.051Z,9.80
2019-03-31T20:42:51.320Z,10.23
2019-03-31T20:45:19.891Z,9.70
2019-03-31T20:47:48.533Z,9.73
2019-03-31T20:50:17.430Z,9.47
2019-03-31T20:52:46.096Z,10.50
2019-03-31T20:55:16.526Z,10.03
2019-03-31T20:57:45.022Z,10.90
2019-03-31T21:00:14.511Z,11.57
2019-03-31T21:02:43.139Z,11.90
2019-03-31T21:05:12.328Z,11.43
2019-03-31T21:07:41.008Z,10.30
2019-03-31T21:10:10.035Z,9.57
2019-03-31T21:12:38.676Z,11.10
2019-03-31T21:15:07.485Z,11.87
2019-03-31T21:17:36.257Z,11.77
2019-03-31T21:20:06.053Z,12.10
2019-03-31T21:22:34.735Z,11.37
2019-03-31T21:25:05.631Z,12.80
2019-03-31T21:27:34.261Z,12.33
2019-03-31T21:30:03.081Z,12.80
2019-03-31T21:32:31.660Z,12.90
2019-03-31T21:35:00.527Z,14.00
2019-03-31T21:37:29.328Z,14.93
2019-03-31T21:39:57.832Z,15.10
2019-03-31T21:42:26.403Z,15.87
2019-03-31T21:44:54.984Z,16.43
2019-03-31T21:47:23.645Z,18.87
2019-03-31T21:49:52.431Z,18.87
2019-03-31T21:52:20.985Z,19.33
2019-03-31T21:54:49.675Z,22.17
2019-03-31T21:57:18.227Z,19.93
2019-03-31T21:59:47.033Z,20.90
2019-03-31T22:02:15.844Z,22.50
2019-03-31T22:04:44.551Z,22.17
2019-03-31T22:07:13.138Z,21.23
2019-03-31T22:09:41.821Z,22.53
2019-03-31T22:12:10.644Z,22.57
2019-03-31T22:14:39.358Z,24.00
2019-03-31T22:17:08.194Z,24.03
2019-03-31T22:19:36.785Z,24.20
2019-03-31T22:22:05.491Z,25.03
2019-03-31T22:24:34.222Z,25.13
2019-03-31T22:27:03.077Z,25.23
2019-03-31T22:29:31.840Z,25.63
2019-03-31T22:32:00.454Z,25.07
2019-03-31T22:34:29.296Z,24.43
2019-03-31T22:36:57.886Z,24.63
2019-03-31T22:39:26.475Z,27.17
2019-03-31T22:41:55.138Z,27.00
2019-03-31T22:44:23.943Z,27.20
2019-03-31T22:46:54.393Z,27.53
2019-03-31T22:49:22.884Z,27.43
2019-03-31T22:51:51.511Z,26.23
2019-03-31T22:54:20.177Z,26.80
2019-03-31T22:56:48.742Z,27.43
2019-03-31T22:59:17.427Z,26.57
2019-03-31T23:01:46.053Z,27.63
2019-03-31T23:04:14.603Z,25.83
2019-03-31T23:06:43.216Z,27.20
2019-03-31T23:09:12.036Z,26.13
2019-03-31T23:11:40.642Z,26.13
2019-03-31T23:14:09.465Z,27.07
2019-03-31T23:16:38.131Z,25.37
2019-03-31T23:19:07.751Z,26.13
2019-03-31T23:21:36.493Z,26.80
2019-03-31T23:24:05.521Z,26.90
2019-03-31T23:26:34.141Z,27.07
2019-03-31T23:29:02.964Z,25.97
2019-03-31T23:31:31.950Z,25.97
2019-03-31T23:34:00.594Z,26.50
2019-03-31T23:36:29.271Z,26.90
2019-03-31T23:38:58.563Z,26.87
2019-03-31T23:41:27.327Z,25.73
2019-03-31T23:43:56.103Z,27.30
2019-03-31T23:46:24.890Z,26.23
2019-03-31T23:48:53.575Z,26.57
2019-03-31T23:51:22.192Z,26.10
2019-03-31T23:53:50.818Z,26.63
2019-03-31T23:56:19.582Z,25.97
2019-03-31T23:58:48.197Z,26.77
